Terminal Aerodrome Forecast
Issued by NWS

Home | Current Version | Previous Version | Text Only | Print | Product List | Glossary On
Versions: 1 2 3 4 5 6 7 8 9 10 11 12 13 14 15 16 17 18 19 20
949
FTUS41 KBTV 051736
TAFSLK
TAF
KSLK 051736Z 0518/0618 24007KT 3SM -SN BR OVC015
      TEMPO 0518/0521 3/4SM -SN BR OVC010
     FM052100 26007KT 4SM -SN BR BKN008
      TEMPO 0521/0601 2SM -SHSN BR OVC012
     FM060100 27007KT P6SM OVC008
     FM060300 27007KT 2SM -SN BR OVC007
     FM060800 29004KT 4SM -SN OVC008
     FM061400 00000KT P6SM OVC010
     FM061600 13004KT P6SM BKN040=

USA.gov is the U.S. government's official web portal to all federal, state and local government web resources and services.